sensor_id;sensor_type;location;lat;lon;timestamp;temperature;humidity
27226;DHT22;14732;51.074;3.788;2022-10-14T00:00:12;15.80;99.90
27226;DHT22;14732;51.074;3.788;2022-10-14T00:02:38;15.80;99.90
27226;DHT22;14732;51.074;3.788;2022-10-14T00:05:04;15.70;99.90
27226;DHT22;14732;51.074;3.788;2022-10-14T00:07:30;15.80;99.90
27226;DHT22;14732;51.074;3.788;2022-10-14T00:09:55;15.80;99.90
27226;DHT22;14732;51.074;3.788;2022-10-14T00:12:21;15.90;99.90
27226;DHT22;14732;51.074;3.788;2022-10-14T00:14:47;15.90;99.90
27226;DHT22;14732;51.074;3.788;2022-10-14T00:17:12;16.00;99.90
27226;DHT22;14732;51.074;3.788;2022-10-14T00:19:39;16.10;99.90
27226;DHT22;14732;51.074;3.788;2022-10-14T00:22:05;16.10;99.90
27226;DHT22;14732;51.074;3.788;2022-10-14T00:24:30;16.00;99.90
27226;DHT22;14732;51.074;3.788;2022-10-14T00:26:56;15.80;99.90
27226;DHT22;14732;51.074;3.788;2022-10-14T00:29:21;15.90;99.90
27226;DHT22;14732;51.074;3.788;2022-10-14T00:31:47;15.80;99.90
27226;DHT22;14732;51.074;3.788;2022-10-14T00:34:13;15.80;99.90
27226;DHT22;14732;51.074;3.788;2022-10-14T00:36:41;15.80;99.90
27226;DHT22;14732;51.074;3.788;2022-10-14T00:39:06;15.90;99.90
27226;DHT22;14732;51.074;3.788;2022-10-14T00:41:33;16.10;99.90
27226;DHT22;14732;51.074;3.788;2022-10-14T00:44:03;15.90;99.90
27226;DHT22;14732;51.074;3.788;2022-10-14T00:46:40;16.00;99.90
27226;DHT22;14732;51.074;3.788;2022-10-14T00:49:12;15.90;99.90
27226;DHT22;14732;51.074;3.788;2022-10-14T00:51:41;15.90;99.90
27226;DHT22;14732;51.074;3.788;2022-10-14T00:54:09;15.90;99.90
27226;DHT22;14732;51.074;3.788;2022-10-14T00:56:37;15.90;99.90
27226;DHT22;14732;51.074;3.788;2022-10-14T00:59:03;15.80;99.90
27226;DHT22;14732;51.074;3.788;2022-10-14T01:01:29;15.80;99.90
27226;DHT22;14732;51.074;3.788;2022-10-14T01:03:55;15.90;99.90
27226;DHT22;14732;51.074;3.788;2022-10-14T01:11:45;16.40;99.90
27226;DHT22;14732;51.074;3.788;2022-10-14T01:24:49;16.40;99.90
27226;DHT22;14732;51.074;3.788;2022-10-14T01:37:40;16.50;99.90
27226;DHT22;14732;51.074;3.788;2022-10-14T01:40:16;16.40;99.90
27226;DHT22;14732;51.074;3.788;2022-10-14T01:42:43;16.40;99.90
27226;DHT22;14732;51.074;3.788;2022-10-14T01:45:21;16.40;99.90
27226;DHT22;14732;51.074;3.788;2022-10-14T01:47:49;16.40;99.90
27226;DHT22;14732;51.074;3.788;2022-10-14T01:50:17;16.30;99.90
27226;DHT22;14732;51.074;3.788;2022-10-14T01:52:47;16.30;99.90
27226;DHT22;14732;51.074;3.788;2022-10-14T01:55:18;16.20;99.90
27226;DHT22;14732;51.074;3.788;2022-10-14T01:57:44;16.30;99.90
27226;DHT22;14732;51.074;3.788;2022-10-14T02:00:12;16.50;99.90
27226;DHT22;14732;51.074;3.788;2022-10-14T02:02:38;16.50;99.90
27226;DHT22;14732;51.074;3.788;2022-10-14T02:05:07;16.50;99.90
27226;DHT22;14732;51.074;3.788;2022-10-14T02:07:46;16.50;99.90
27226;DHT22;14732;51.074;3.788;2022-10-14T02:15:56;16.30;99.90
27226;DHT22;14732;51.074;3.788;2022-10-14T02:18:37;16.20;99.90
27226;DHT22;14732;51.074;3.788;2022-10-14T02:21:06;16.20;99.90
27226;DHT22;14732;51.074;3.788;2022-10-14T02:23:47;16.40;99.90
27226;DHT22;14732;51.074;3.788;2022-10-14T02:26:15;16.60;99.90
27226;DHT22;14732;51.074;3.788;2022-10-14T02:28:42;16.60;99.90
27226;DHT22;14732;51.074;3.788;2022-10-14T02:31:12;16.60;99.90
27226;DHT22;14732;51.074;3.788;2022-10-14T02:33:41;16.70;99.90
27226;DHT22;14732;51.074;3.788;2022-10-14T02:36:11;16.70;99.90
27226;DHT22;14732;51.074;3.788;2022-10-14T02:38:38;16.80;99.90
27226;DHT22;14732;51.074;3.788;2022-10-14T02:41:09;16.60;99.90
27226;DHT22;14732;51.074;3.788;2022-10-14T02:43:37;16.60;99.90
27226;DHT22;14732;51.074;3.788;2022-10-14T02:46:03;16.50;99.90
27226;DHT22;14732;51.074;3.788;2022-10-14T02:48:29;16.40;99.90
27226;DHT22;14732;51.074;3.788;2022-10-14T02:50:55;16.40;99.90
27226;DHT22;14732;51.074;3.788;2022-10-14T02:53:21;16.50;99.90
27226;DHT22;14732;51.074;3.788;2022-10-14T02:55:47;16.40;99.90
27226;DHT22;14732;51.074;3.788;2022-10-14T02:58:13;16.50;99.90
27226;DHT22;14732;51.074;3.788;2022-10-14T03:00:38;16.50;99.90
27226;DHT22;14732;51.074;3.788;2022-10-14T03:03:04;16.50;99.90
27226;DHT22;14732;51.074;3.788;2022-10-14T03:05:30;16.60;99.90
27226;DHT22;14732;51.074;3.788;2022-10-14T03:07:55;16.50;99.90
27226;DHT22;14732;51.074;3.788;2022-10-14T03:10:21;16.50;99.90
27226;DHT22;14732;51.074;3.788;2022-10-14T03:12:46;16.50;99.90
27226;DHT22;14732;51.074;3.788;2022-10-14T03:15:12;16.60;99.90
27226;DHT22;14732;51.074;3.788;2022-10-14T03:17:38;16.60;99.90
27226;DHT22;14732;51.074;3.788;2022-10-14T03:20:05;16.60;99.90
27226;DHT22;14732;51.074;3.788;2022-10-14T03:22:31;16.50;99.90
27226;DHT22;14732;51.074;3.788;2022-10-14T03:24:57;16.70;99.90
27226;DHT22;14732;51.074;3.788;2022-10-14T03:27:23;16.70;99.90
27226;DHT22;14732;51.074;3.788;2022-10-14T03:29:49;16.60;99.90
27226;DHT22;14732;51.074;3.788;2022-10-14T03:32:15;16.50;99.90
27226;DHT22;14732;51.074;3.788;2022-10-14T03:34:41;16.50;99.90
27226;DHT22;14732;51.074;3.788;2022-10-14T03:37:06;16.60;99.90
27226;DHT22;14732;51.074;3.788;2022-10-14T03:39:32;16.60;99.90
27226;DHT22;14732;51.074;3.788;2022-10-14T03:41:58;16.60;99.90
27226;DHT22;14732;51.074;3.788;2022-10-14T03:44:23;16.50;99.90
27226;DHT22;14732;51.074;3.788;2022-10-14T03:46:49;16.40;99.90
27226;DHT22;14732;51.074;3.788;2022-10-14T03:49:14;16.50;99.90
27226;DHT22;14732;51.074;3.788;2022-10-14T03:51:40;16.50;99.90
27226;DHT22;14732;51.074;3.788;2022-10-14T03:54:06;16.50;99.90
27226;DHT22;14732;51.074;3.788;2022-10-14T03:56:32;16.60;99.90
27226;DHT22;14732;51.074;3.788;2022-10-14T03:58:57;16.50;99.90
27226;DHT22;14732;51.074;3.788;2022-10-14T04:01:23;16.50;99.90
27226;DHT22;14732;51.074;3.788;2022-10-14T04:03:49;16.60;99.90
27226;DHT22;14732;51.074;3.788;2022-10-14T04:06:15;16.60;99.90
27226;DHT22;14732;51.074;3.788;2022-10-14T04:08:42;16.70;99.90
27226;DHT22;14732;51.074;3.788;2022-10-14T04:11:08;16.80;99.90
27226;DHT22;14732;51.074;3.788;2022-10-14T04:13:33;16.70;99.90
27226;DHT22;14732;51.074;3.788;2022-10-14T04:16:09;16.70;99.90
27226;DHT22;14732;51.074;3.788;2022-10-14T04:18:36;16.70;99.90
27226;DHT22;14732;51.074;3.788;2022-10-14T04:21:04;16.60;99.90
27226;DHT22;14732;51.074;3.788;2022-10-14T04:23:30;16.50;99.90
27226;DHT22;14732;51.074;3.788;2022-10-14T04:25:56;16.50;99.90
27226;DHT22;14732;51.074;3.788;2022-10-14T04:28:22;16.50;99.90
27226;DHT22;14732;51.074;3.788;2022-10-14T04:30:48;16.40;99.90
27226;DHT22;14732;51.074;3.788;2022-10-14T04:33:13;16.50;99.90
27226;DHT22;14732;51.074;3.788;2022-10-14T04:35:39;16.50;99.90
27226;DHT22;14732;51.074;3.788;2022-10-14T04:38:04;16.50;99.90
27226;DHT22;14732;51.074;3.788;2022-10-14T04:40:30;16.60;99.90
27226;DHT22;14732;51.074;3.788;2022-10-14T04:42:57;16.50;99.90
27226;DHT22;14732;51.074;3.788;2022-10-14T04:45:23;16.50;99.90
27226;DHT22;14732;51.074;3.788;2022-10-14T04:47:53;16.60;99.90
27226;DHT22;14732;51.074;3.788;2022-10-14T04:50:21;16.50;99.90
27226;DHT22;14732;51.074;3.788;2022-10-14T04:52:47;16.30;99.90
27226;DHT22;14732;51.074;3.788;2022-10-14T04:55:13;16.50;99.90
27226;DHT22;14732;51.074;3.788;2022-10-14T04:57:38;16.50;99.90
27226;DHT22;14732;51.074;3.788;2022-10-14T05:00:05;16.60;99.90
27226;DHT22;14732;51.074;3.788;2022-10-14T05:02:31;16.50;99.90
27226;DHT22;14732;51.074;3.788;2022-10-14T05:04:56;16.50;99.90
27226;DHT22;14732;51.074;3.788;2022-10-14T05:07:22;16.40;99.90
27226;DHT22;14732;51.074;3.788;2022-10-14T05:09:48;16.50;99.90
27226;DHT22;14732;51.074;3.788;2022-10-14T05:12:14;16.40;99.90
27226;DHT22;14732;51.074;3.788;2022-10-14T05:14:40;16.40;99.90
27226;DHT22;14732;51.074;3.788;2022-10-14T05:17:05;16.40;99.90
27226;DHT22;14732;51.074;3.788;2022-10-14T05:19:31;16.40;99.90
27226;DHT22;14732;51.074;3.788;2022-10-14T05:21:56;16.30;99.90
27226;DHT22;14732;51.074;3.788;2022-10-14T05:24:22;16.40;99.90
27226;DHT22;14732;51.074;3.788;2022-10-14T05:26:48;16.60;99.90
27226;DHT22;14732;51.074;3.788;2022-10-14T05:29:13;16.60;99.90
27226;DHT22;14732;51.074;3.788;2022-10-14T05:31:39;16.50;99.90
27226;DHT22;14732;51.074;3.788;2022-10-14T05:34:05;16.50;99.90
27226;DHT22;14732;51.074;3.788;2022-10-14T05:36:31;16.50;99.90
27226;DHT22;14732;51.074;3.788;2022-10-14T05:38:56;16.40;99.90
27226;DHT22;14732;51.074;3.788;2022-10-14T05:41:24;16.40;99.90
27226;DHT22;14732;51.074;3.788;2022-10-14T05:43:49;16.40;99.90
27226;DHT22;14732;51.074;3.788;2022-10-14T05:46:15;16.40;99.90
27226;DHT22;14732;51.074;3.788;2022-10-14T05:48:41;16.50;99.90
27226;DHT22;14732;51.074;3.788;2022-10-14T05:51:07;16.30;99.90
27226;DHT22;14732;51.074;3.788;2022-10-14T05:53:32;16.20;99.90
27226;DHT22;14732;51.074;3.788;2022-10-14T05:56:06;16.30;99.90
27226;DHT22;14732;51.074;3.788;2022-10-14T05:58:32;16.30;99.90
27226;DHT22;14732;51.074;3.788;2022-10-14T06:01:02;16.20;99.90
27226;DHT22;14732;51.074;3.788;2022-10-14T06:03:28;16.10;99.90
27226;DHT22;14732;51.074;3.788;2022-10-14T06:05:54;16.20;99.90
27226;DHT22;14732;51.074;3.788;2022-10-14T06:08:21;16.40;99.90
27226;DHT22;14732;51.074;3.788;2022-10-14T06:10:47;16.30;99.90
27226;DHT22;14732;51.074;3.788;2022-10-14T06:13:13;16.30;99.90
27226;DHT22;14732;51.074;3.788;2022-10-14T06:15:39;16.20;99.90
27226;DHT22;14732;51.074;3.788;2022-10-14T06:18:04;16.30;99.90
27226;DHT22;14732;51.074;3.788;2022-10-14T06:20:30;16.00;99.90
27226;DHT22;14732;51.074;3.788;2022-10-14T06:22:58;16.10;99.90
27226;DHT22;14732;51.074;3.788;2022-10-14T06:25:24;16.10;99.90
27226;DHT22;14732;51.074;3.788;2022-10-14T06:27:50;16.10;99.90
27226;DHT22;14732;51.074;3.788;2022-10-14T06:30:15;15.90;99.90
27226;DHT22;14732;51.074;3.788;2022-10-14T06:32:41;16.10;99.90
27226;DHT22;14732;51.074;3.788;2022-10-14T06:35:07;15.90;99.90
27226;DHT22;14732;51.074;3.788;2022-10-14T06:37:33;16.00;99.90
27226;DHT22;14732;51.074;3.788;2022-10-14T06:39:58;16.20;99.90
27226;DHT22;14732;51.074;3.788;2022-10-14T06:42:25;16.20;99.90
27226;DHT22;14732;51.074;3.788;2022-10-14T06:44:51;16.30;99.90
27226;DHT22;14732;51.074;3.788;2022-10-14T06:47:16;16.30;99.90
27226;DHT22;14732;51.074;3.788;2022-10-14T06:49:42;16.30;99.90
27226;DHT22;14732;51.074;3.788;2022-10-14T06:52:08;16.40;99.90
27226;DHT22;14732;51.074;3.788;2022-10-14T06:54:33;16.40;99.90
27226;DHT22;14732;51.074;3.788;2022-10-14T06:56:59;16.50;99.90
27226;DHT22;14732;51.074;3.788;2022-10-14T06:59:25;16.40;99.90
27226;DHT22;14732;51.074;3.788;2022-10-14T07:01:53;16.40;99.90
27226;DHT22;14732;51.074;3.788;2022-10-14T07:04:19;16.30;99.90
27226;DHT22;14732;51.074;3.788;2022-10-14T07:06:48;16.30;99.90
27226;DHT22;14732;51.074;3.788;2022-10-14T07:09:13;16.30;99.90
27226;DHT22;14732;51.074;3.788;2022-10-14T07:11:39;16.40;99.90
27226;DHT22;14732;51.074;3.788;2022-10-14T07:14:07;16.40;99.90
27226;DHT22;14732;51.074;3.788;2022-10-14T07:16:33;16.40;99.90
27226;DHT22;14732;51.074;3.788;2022-10-14T07:18:59;16.40;99.90
27226;DHT22;14732;51.074;3.788;2022-10-14T07:21:24;16.30;99.90
27226;DHT22;14732;51.074;3.788;2022-10-14T07:23:50;16.30;99.90
27226;DHT22;14732;51.074;3.788;2022-10-14T07:26:16;16.50;99.90
27226;DHT22;14732;51.074;3.788;2022-10-14T07:28:43;16.60;99.90
27226;DHT22;14732;51.074;3.788;2022-10-14T07:31:10;16.50;99.90
27226;DHT22;14732;51.074;3.788;2022-10-14T07:33:37;16.70;99.90
27226;DHT22;14732;51.074;3.788;2022-10-14T07:36:14;16.80;99.90
27226;DHT22;14732;51.074;3.788;2022-10-14T07:38:40;16.70;99.90
27226;DHT22;14732;51.074;3.788;2022-10-14T07:41:09;16.90;99.90
27226;DHT22;14732;51.074;3.788;2022-10-14T07:43:45;16.90;99.90
27226;DHT22;14732;51.074;3.788;2022-10-14T07:46:12;16.90;99.90
27226;DHT22;14732;51.074;3.788;2022-10-14T07:48:39;17.00;99.90
27226;DHT22;14732;51.074;3.788;2022-10-14T07:51:08;16.90;99.90
27226;DHT22;14732;51.074;3.788;2022-10-14T07:53:35;16.80;99.90
27226;DHT22;14732;51.074;3.788;2022-10-14T07:56:01;16.70;99.90
27226;DHT22;14732;51.074;3.788;2022-10-14T07:58:29;16.80;99.90
27226;DHT22;14732;51.074;3.788;2022-10-14T08:00:56;17.00;99.90
27226;DHT22;14732;51.074;3.788;2022-10-14T08:03:23;17.00;99.90
27226;DHT22;14732;51.074;3.788;2022-10-14T08:05:50;16.90;99.90
27226;DHT22;14732;51.074;3.788;2022-10-14T08:08:22;17.00;99.90
27226;DHT22;14732;51.074;3.788;2022-10-14T08:10:48;17.00;99.90
27226;DHT22;14732;51.074;3.788;2022-10-14T08:13:14;17.10;99.90
27226;DHT22;14732;51.074;3.788;2022-10-14T08:15:40;17.00;99.90
27226;DHT22;14732;51.074;3.788;2022-10-14T08:18:09;17.20;99.90
27226;DHT22;14732;51.074;3.788;2022-10-14T08:20:35;17.20;99.90
27226;DHT22;14732;51.074;3.788;2022-10-14T08:23:01;17.30;99.90
27226;DHT22;14732;51.074;3.788;2022-10-14T08:25:27;17.30;99.90
27226;DHT22;14732;51.074;3.788;2022-10-14T08:27:53;17.10;99.90
27226;DHT22;14732;51.074;3.788;2022-10-14T08:30:22;17.10;99.90
27226;DHT22;14732;51.074;3.788;2022-10-14T08:32:48;17.00;99.90
27226;DHT22;14732;51.074;3.788;2022-10-14T08:35:14;17.10;99.90
27226;DHT22;14732;51.074;3.788;2022-10-14T08:37:40;17.10;99.90
27226;DHT22;14732;51.074;3.788;2022-10-14T08:40:06;17.20;99.90
27226;DHT22;14732;51.074;3.788;2022-10-14T08:45:44;17.10;99.90
27226;DHT22;14732;51.074;3.788;2022-10-14T08:48:17;17.10;99.90
27226;DHT22;14732;51.074;3.788;2022-10-14T08:50:52;17.20;99.90
27226;DHT22;14732;51.074;3.788;2022-10-14T08:53:23;17.10;99.90
27226;DHT22;14732;51.074;3.788;2022-10-14T08:55:55;17.10;99.90
27226;DHT22;14732;51.074;3.788;2022-10-14T09:03:43;17.10;99.90
27226;DHT22;14732;51.074;3.788;2022-10-14T09:08:43;17.30;99.90
27226;DHT22;14732;51.074;3.788;2022-10-14T09:11:13;17.40;99.90
27226;DHT22;14732;51.074;3.788;2022-10-14T09:13:41;17.40;99.90
27226;DHT22;14732;51.074;3.788;2022-10-14T09:16:18;17.50;99.90
27226;DHT22;14732;51.074;3.788;2022-10-14T09:21:34;17.50;99.90
27226;DHT22;14732;51.074;3.788;2022-10-14T09:26:59;17.60;99.90
27226;DHT22;14732;51.074;3.788;2022-10-14T09:29:32;17.50;99.90
27226;DHT22;14732;51.074;3.788;2022-10-14T09:32:03;17.50;99.90
27226;DHT22;14732;51.074;3.788;2022-10-14T09:34:39;17.40;99.90
27226;DHT22;14732;51.074;3.788;2022-10-14T09:42:57;17.30;99.90
27226;DHT22;14732;51.074;3.788;2022-10-14T09:45:25;17.60;99.90
27226;DHT22;14732;51.074;3.788;2022-10-14T09:47:55;17.70;99.90
27226;DHT22;14732;51.074;3.788;2022-10-14T09:50:38;17.70;99.90
27226;DHT22;14732;51.074;3.788;2022-10-14T09:53:38;17.70;99.90
27226;DHT22;14732;51.074;3.788;2022-10-14T09:56:07;17.90;99.90
27226;DHT22;14732;51.074;3.788;2022-10-14T10:01:17;17.90;99.90
27226;DHT22;14732;51.074;3.788;2022-10-14T10:03:44;17.90;99.90
27226;DHT22;14732;51.074;3.788;2022-10-14T10:06:13;17.90;99.90
27226;DHT22;14732;51.074;3.788;2022-10-14T10:09:02;18.10;99.90
27226;DHT22;14732;51.074;3.788;2022-10-14T10:11:38;18.20;99.90
27226;DHT22;14732;51.074;3.788;2022-10-14T10:14:27;18.10;99.90
27226;DHT22;14732;51.074;3.788;2022-10-14T10:19:37;18.30;99.90
27226;DHT22;14732;51.074;3.788;2022-10-14T10:24:45;18.40;99.90
27226;DHT22;14732;51.074;3.788;2022-10-14T10:27:26;18.30;99.90
27226;DHT22;14732;51.074;3.788;2022-10-14T10:29:53;18.40;99.90
27226;DHT22;14732;51.074;3.788;2022-10-14T10:32:42;18.30;99.90
27226;DHT22;14732;51.074;3.788;2022-10-14T10:38:24;18.40;99.90
27226;DHT22;14732;51.074;3.788;2022-10-14T10:49:28;18.40;99.90
27226;DHT22;14732;51.074;3.788;2022-10-14T10:52:18;18.50;99.90
27226;DHT22;14732;51.074;3.788;2022-10-14T10:57:46;18.60;99.90
27226;DHT22;14732;51.074;3.788;2022-10-14T11:00:16;18.80;99.90
27226;DHT22;14732;51.074;3.788;2022-10-14T11:03:06;19.10;99.90
27226;DHT22;14732;51.074;3.788;2022-10-14T11:05:57;19.40;99.90
27226;DHT22;14732;51.074;3.788;2022-10-14T11:17:22;20.70;99.90
27226;DHT22;14732;51.074;3.788;2022-10-14T11:19:53;20.90;99.90
27226;DHT22;14732;51.074;3.788;2022-10-14T11:24:56;20.40;99.90
27226;DHT22;14732;51.074;3.788;2022-10-14T11:36:15;20.80;99.90
27226;DHT22;14732;51.074;3.788;2022-10-14T11:39:01;20.80;99.90
27226;DHT22;14732;51.074;3.788;2022-10-14T11:42:02;20.80;99.90
27226;DHT22;14732;51.074;3.788;2022-10-14T11:44:35;20.80;99.90
27226;DHT22;14732;51.074;3.788;2022-10-14T11:50:01;20.30;99.90
27226;DHT22;14732;51.074;3.788;2022-10-14T11:52:35;20.40;99.90
27226;DHT22;14732;51.074;3.788;2022-10-14T11:55:23;20.70;99.90
27226;DHT22;14732;51.074;3.788;2022-10-14T11:58:02;20.80;99.90
27226;DHT22;14732;51.074;3.788;2022-10-14T12:00:31;20.90;99.90
27226;DHT22;14732;51.074;3.788;2022-10-14T12:10:36;20.10;99.90
27226;DHT22;14732;51.074;3.788;2022-10-14T12:13:12;20.10;99.90
27226;DHT22;14732;51.074;3.788;2022-10-14T12:15:41;20.30;99.90
27226;DHT22;14732;51.074;3.788;2022-10-14T12:18:10;20.60;99.90
27226;DHT22;14732;51.074;3.788;2022-10-14T12:20:44;20.90;99.90
27226;DHT22;14732;51.074;3.788;2022-10-14T12:23:37;21.00;99.90
27226;DHT22;14732;51.074;3.788;2022-10-14T12:28:44;21.20;99.90
27226;DHT22;14732;51.074;3.788;2022-10-14T12:31:36;21.10;99.90
27226;DHT22;14732;51.074;3.788;2022-10-14T12:36:49;21.10;99.90
27226;DHT22;14732;51.074;3.788;2022-10-14T12:42:03;21.30;99.90
27226;DHT22;14732;51.074;3.788;2022-10-14T12:44:34;21.00;99.90
27226;DHT22;14732;51.074;3.788;2022-10-14T12:47:02;21.00;99.90
27226;DHT22;14732;51.074;3.788;2022-10-14T12:49:33;21.00;99.90
27226;DHT22;14732;51.074;3.788;2022-10-14T12:52:06;21.10;99.90
27226;DHT22;14732;51.074;3.788;2022-10-14T12:54:34;21.00;99.90
27226;DHT22;14732;51.074;3.788;2022-10-14T12:57:13;20.90;99.90
27226;DHT22;14732;51.074;3.788;2022-10-14T12:59:48;20.80;99.90
27226;DHT22;14732;51.074;3.788;2022-10-14T13:02:29;20.90;99.90
27226;DHT22;14732;51.074;3.788;2022-10-14T13:05:02;20.80;99.90
27226;DHT22;14732;51.074;3.788;2022-10-14T13:07:38;20.60;99.90
27226;DHT22;14732;51.074;3.788;2022-10-14T13:10:38;20.50;99.90
27226;DHT22;14732;51.074;3.788;2022-10-14T13:34:50;20.00;99.90
27226;DHT22;14732;51.074;3.788;2022-10-14T13:37:34;19.70;99.90
27226;DHT22;14732;51.074;3.788;2022-10-14T13:42:48;19.60;99.90
27226;DHT22;14732;51.074;3.788;2022-10-14T13:45:15;19.80;99.90
27226;DHT22;14732;51.074;3.788;2022-10-14T13:47:48;19.80;99.90
27226;DHT22;14732;51.074;3.788;2022-10-14T13:50:21;19.70;99.90
27226;DHT22;14732;51.074;3.788;2022-10-14T13:53:00;19.80;99.90
27226;DHT22;14732;51.074;3.788;2022-10-14T13:55:27;19.80;99.90
27226;DHT22;14732;51.074;3.788;2022-10-14T13:58:14;19.60;99.90
27226;DHT22;14732;51.074;3.788;2022-10-14T14:03:22;19.50;99.90
27226;DHT22;14732;51.074;3.788;2022-10-14T14:05:49;19.40;99.90
27226;DHT22;14732;51.074;3.788;2022-10-14T14:08:22;19.30;99.90
27226;DHT22;14732;51.074;3.788;2022-10-14T14:10:58;19.10;99.90
27226;DHT22;14732;51.074;3.788;2022-10-14T14:13:31;19.30;99.90
27226;DHT22;14732;51.074;3.788;2022-10-14T14:15:58;19.50;99.90
27226;DHT22;14732;51.074;3.788;2022-10-14T14:18:35;19.50;99.90
27226;DHT22;14732;51.074;3.788;2022-10-14T14:21:04;19.50;99.90
27226;DHT22;14732;51.074;3.788;2022-10-14T14:23:31;19.40;99.90
27226;DHT22;14732;51.074;3.788;2022-10-14T14:25:56;19.30;99.90
27226;DHT22;14732;51.074;3.788;2022-10-14T14:28:30;19.40;99.90
27226;DHT22;14732;51.074;3.788;2022-10-14T14:30:57;19.50;99.90
27226;DHT22;14732;51.074;3.788;2022-10-14T14:33:31;19.40;99.90
27226;DHT22;14732;51.074;3.788;2022-10-14T14:36:01;19.40;99.90
27226;DHT22;14732;51.074;3.788;2022-10-14T14:38:33;19.40;99.90
27226;DHT22;14732;51.074;3.788;2022-10-14T14:41:21;19.40;99.90
27226;DHT22;14732;51.074;3.788;2022-10-14T14:43:52;19.50;99.90
27226;DHT22;14732;51.074;3.788;2022-10-14T14:46:30;19.60;99.90
27226;DHT22;14732;51.074;3.788;2022-10-14T14:48:57;19.60;99.90
27226;DHT22;14732;51.074;3.788;2022-10-14T14:51:26;19.50;99.90
27226;DHT22;14732;51.074;3.788;2022-10-14T14:53:54;19.50;99.90
27226;DHT22;14732;51.074;3.788;2022-10-14T14:56:25;19.60;99.90
27226;DHT22;14732;51.074;3.788;2022-10-14T14:58:54;19.30;99.90
27226;DHT22;14732;51.074;3.788;2022-10-14T15:01:22;19.20;99.90
27226;DHT22;14732;51.074;3.788;2022-10-14T15:06:25;19.30;99.90
27226;DHT22;14732;51.074;3.788;2022-10-14T15:08:53;19.50;99.90
27226;DHT22;14732;51.074;3.788;2022-10-14T15:11:20;19.50;99.90
27226;DHT22;14732;51.074;3.788;2022-10-14T15:13:55;19.60;99.90
27226;DHT22;14732;51.074;3.788;2022-10-14T15:16:40;19.60;99.90
27226;DHT22;14732;51.074;3.788;2022-10-14T15:22:18;19.70;99.90
27226;DHT22;14732;51.074;3.788;2022-10-14T15:24:59;19.70;99.90
27226;DHT22;14732;51.074;3.788;2022-10-14T15:32:49;19.60;99.90
27226;DHT22;14732;51.074;3.788;2022-10-14T15:35:17;19.50;99.90
27226;DHT22;14732;51.074;3.788;2022-10-14T15:37:44;19.50;99.90
27226;DHT22;14732;51.074;3.788;2022-10-14T15:40:22;19.60;99.90
27226;DHT22;14732;51.074;3.788;2022-10-14T15:42:48;19.50;99.90
27226;DHT22;14732;51.074;3.788;2022-10-14T15:45:14;19.50;99.90
27226;DHT22;14732;51.074;3.788;2022-10-14T15:47:40;19.40;99.90
27226;DHT22;14732;51.074;3.788;2022-10-14T15:52:39;19.30;99.90
27226;DHT22;14732;51.074;3.788;2022-10-14T15:55:25;19.20;99.90
27226;DHT22;14732;51.074;3.788;2022-10-14T15:57:52;19.20;99.90
27226;DHT22;14732;51.074;3.788;2022-10-14T16:00:20;19.10;99.90
27226;DHT22;14732;51.074;3.788;2022-10-14T16:02:52;19.10;99.90
27226;DHT22;14732;51.074;3.788;2022-10-14T16:05:24;19.00;99.90
27226;DHT22;14732;51.074;3.788;2022-10-14T16:07:50;18.90;99.90
27226;DHT22;14732;51.074;3.788;2022-10-14T16:10:18;18.80;99.90
27226;DHT22;14732;51.074;3.788;2022-10-14T16:12:44;18.70;99.90
27226;DHT22;14732;51.074;3.788;2022-10-14T16:17:43;18.70;99.90
27226;DHT22;14732;51.074;3.788;2022-10-14T16:20:09;18.70;99.90
27226;DHT22;14732;51.074;3.788;2022-10-14T16:22:36;18.60;99.90
27226;DHT22;14732;51.074;3.788;2022-10-14T16:25:02;18.60;99.90
27226;DHT22;14732;51.074;3.788;2022-10-14T16:27:27;18.60;99.90
27226;DHT22;14732;51.074;3.788;2022-10-14T16:29:53;18.60;99.90
27226;DHT22;14732;51.074;3.788;2022-10-14T16:32:19;18.60;99.90
27226;DHT22;14732;51.074;3.788;2022-10-14T16:34:44;18.50;99.90
27226;DHT22;14732;51.074;3.788;2022-10-14T16:37:10;18.40;99.90
27226;DHT22;14732;51.074;3.788;2022-10-14T16:39:36;18.30;99.90
27226;DHT22;14732;51.074;3.788;2022-10-14T16:42:03;18.30;99.90
27226;DHT22;14732;51.074;3.788;2022-10-14T16:44:29;18.20;99.90
27226;DHT22;14732;51.074;3.788;2022-10-14T16:46:56;18.00;99.90
27226;DHT22;14732;51.074;3.788;2022-10-14T16:49:46;18.00;99.90
27226;DHT22;14732;51.074;3.788;2022-10-14T16:52:13;17.90;99.90
27226;DHT22;14732;51.074;3.788;2022-10-14T16:54:39;17.80;99.90
27226;DHT22;14732;51.074;3.788;2022-10-14T16:57:05;17.70;99.90
27226;DHT22;14732;51.074;3.788;2022-10-14T16:59:31;17.60;99.90
27226;DHT22;14732;51.074;3.788;2022-10-14T17:01:57;17.60;99.90
27226;DHT22;14732;51.074;3.788;2022-10-14T17:04:24;17.60;99.90
27226;DHT22;14732;51.074;3.788;2022-10-14T17:06:50;17.50;99.90
27226;DHT22;14732;51.074;3.788;2022-10-14T17:09:17;17.50;99.90
27226;DHT22;14732;51.074;3.788;2022-10-14T17:11:43;17.40;99.90
27226;DHT22;14732;51.074;3.788;2022-10-14T17:14:12;17.40;99.90
27226;DHT22;14732;51.074;3.788;2022-10-14T17:16:39;17.40;99.90
27226;DHT22;14732;51.074;3.788;2022-10-14T17:19:05;17.30;99.90
27226;DHT22;14732;51.074;3.788;2022-10-14T17:21:30;17.30;99.90
27226;DHT22;14732;51.074;3.788;2022-10-14T17:24:00;17.20;99.90
27226;DHT22;14732;51.074;3.788;2022-10-14T17:26:26;17.20;99.90
27226;DHT22;14732;51.074;3.788;2022-10-14T17:28:54;17.20;99.90
27226;DHT22;14732;51.074;3.788;2022-10-14T17:31:20;17.30;99.90
27226;DHT22;14732;51.074;3.788;2022-10-14T17:33:48;17.20;99.90
27226;DHT22;14732;51.074;3.788;2022-10-14T17:36:25;17.10;99.90
27226;DHT22;14732;51.074;3.788;2022-10-14T17:38:55;17.10;99.90
27226;DHT22;14732;51.074;3.788;2022-10-14T17:41:23;17.00;99.90
27226;DHT22;14732;51.074;3.788;2022-10-14T17:43:51;17.00;99.90
27226;DHT22;14732;51.074;3.788;2022-10-14T17:46:19;16.90;99.90
27226;DHT22;14732;51.074;3.788;2022-10-14T17:48:51;16.80;99.90
27226;DHT22;14732;51.074;3.788;2022-10-14T17:51:17;16.80;99.90
27226;DHT22;14732;51.074;3.788;2022-10-14T17:53:47;16.80;99.90
27226;DHT22;14732;51.074;3.788;2022-10-14T17:56:13;16.80;99.90
27226;DHT22;14732;51.074;3.788;2022-10-14T17:58:39;16.70;99.90
27226;DHT22;14732;51.074;3.788;2022-10-14T18:01:13;16.70;99.90
27226;DHT22;14732;51.074;3.788;2022-10-14T18:03:41;16.60;99.90
27226;DHT22;14732;51.074;3.788;2022-10-14T18:08:38;16.60;99.90
27226;DHT22;14732;51.074;3.788;2022-10-14T18:11:05;16.60;99.90
27226;DHT22;14732;51.074;3.788;2022-10-14T18:13:31;16.50;99.90
27226;DHT22;14732;51.074;3.788;2022-10-14T18:16:24;16.50;99.90
27226;DHT22;14732;51.074;3.788;2022-10-14T18:18:50;16.50;99.90
27226;DHT22;14732;51.074;3.788;2022-10-14T18:21:16;16.50;99.90
27226;DHT22;14732;51.074;3.788;2022-10-14T18:23:42;16.40;99.90